Time;durP1;ratioP1;P1;durP2;ratioP2;P2;SDS_P1;SDS_P2;PMS_P1;PMS_P2;Temp;Humidity;BMP_temperature;BMP_pressure;BME280_temperature;BME280_humidity;BME280_pressure;Samples;Min_cycle;Max_cycle;Signal;HPM_P1;HPM_P2
2021/12/08 00:01:27;;;;;;;18.08;5.80;;;;;;;;;;4975225;28;20098;-83
2021/12/08 00:03:54;;;;;;;21.98;5.35;;;;;;;;;;4985310;28;20051;-83
2021/12/08 06:10:02;;;;;;;94.88;43.50;;;;;;;;;;5078489;27;1693407;-87
2021/12/08 06:12:31;;;;;;;98.80;44.97;;;;;;;;;;5105242;28;20035;-86
2021/12/08 06:14:58;;;;;;;86.30;41.53;;;;;;;;;;5117568;28;20023;-84
2021/12/08 06:17:26;;;;;;;83.93;40.25;;;;;;;;;;5107420;28;20028;-85
2021/12/08 06:19:53;;;;;;;93.03;39.90;;;;;;;;;;5109462;28;20035;-84
2021/12/08 06:22:21;;;;;;;79.78;36.60;;;;;;;;;;5112517;28;20478;-84
2021/12/08 06:24:48;;;;;;;69.18;34.85;;;;;;;;;;5107927;28;20084;-85
2021/12/08 06:27:15;;;;;;;72.70;34.83;;;;;;;;;;5092023;28;20028;-85
2021/12/08 06:29:42;;;;;;;76.15;32.75;;;;;;;;;;5097713;28;20024;-84
2021/12/08 06:32:10;;;;;;;65.40;31.77;;;;;;;;;;5105309;28;20028;-85
2021/12/08 06:34:38;;;;;;;76.68;32.40;;;;;;;;;;5091031;28;20032;-84
2021/12/08 06:37:07;;;;;;;64.97;30.73;;;;;;;;;;5092614;28;20421;-84
2021/12/08 06:39:36;;;;;;;66.45;29.33;;;;;;;;;;5103654;28;20060;-85
2021/12/08 06:42:07;;;;;;;57.50;29.23;;;;;;;;;;5100809;28;20027;-85
2021/12/08 06:44:36;;;;;;;66.28;30.73;;;;;;;;;;5104646;28;20126;-84
2021/12/08 06:47:03;;;;;;;61.67;28.40;;;;;;;;;;5105196;28;20058;-85
2021/12/08 06:49:30;;;;;;;62.80;30.45;;;;;;;;;;5104006;28;20059;-84
2021/12/08 06:52:01;;;;;;;70.70;32.08;;;;;;;;;;5105655;28;20080;-85
2021/12/08 06:54:33;;;;;;;73.40;34.88;;;;;;;;;;5101173;28;20065;-85
2021/12/08 06:57:02;;;;;;;78.13;36.55;;;;;;;;;;5094006;28;20506;-84
2021/12/08 06:59:35;;;;;;;95.75;41.63;;;;;;;;;;5103587;28;20524;-84
2021/12/08 07:02:08;;;;;;;92.78;42.65;;;;;;;;;;5110006;28;20028;-84
2021/12/08 07:04:42;;;;;;;93.80;44.30;;;;;;;;;;5098476;28;20027;-85
2021/12/08 07:07:24;;;;;;;108.05;44.17;;;;;;;;;;5110460;28;20079;-84
2021/12/08 07:10:20;;;;;;;96.55;47.08;;;;;;;;;;5102856;28;20047;-84
2021/12/08 07:12:50;;;;;;;99.43;47.25;;;;;;;;;;5089200;28;20028;-85
2021/12/08 07:15:18;;;;;;;96.70;46.17;;;;;;;;;;5093868;28;20106;-85
2021/12/08 07:17:49;;;;;;;93.65;44.42;;;;;;;;;;5095139;28;20024;-84
2021/12/08 07:20:33;;;;;;;100.95;43.33;;;;;;;;;;5095571;28;20030;-84
2021/12/08 07:23:00;;;;;;;89.40;42.03;;;;;;;;;;5087202;28;20435;-86
2021/12/08 07:25:28;;;;;;;95.95;42.70;;;;;;;;;;5090261;28;20059;-86
2021/12/08 07:27:54;;;;;;;99.07;44.25;;;;;;;;;;5106807;28;20027;-86
2021/12/08 07:30:23;;;;;;;88.30;43.10;;;;;;;;;;5090928;28;20023;-85
2021/12/08 07:32:49;;;;;;;94.55;44.35;;;;;;;;;;5095119;28;20023;-85
2021/12/08 07:35:21;;;;;;;84.70;38.30;;;;;;;;;;5096045;28;20031;-85
2021/12/08 07:37:48;;;;;;;93.47;39.50;;;;;;;;;;5084393;28;20030;-85
2021/12/08 07:40:20;;;;;;;83.60;36.70;;;;;;;;;;5078558;28;20042;-85
2021/12/08 07:42:55;;;;;;;83.45;35.03;;;;;;;;;;5095320;28;20055;-85
2021/12/08 07:45:25;;;;;;;87.50;36.83;;;;;;;;;;5092521;28;20028;-85
2021/12/08 07:47:53;;;;;;;90.72;38.72;;;;;;;;;;5095499;28;20038;-85
2021/12/08 07:50:26;;;;;;;87.45;39.22;;;;;;;;;;5095395;28;20397;-85
2021/12/08 07:52:53;;;;;;;95.13;39.53;;;;;;;;;;5097310;28;20020;-86
2021/12/08 07:55:22;;;;;;;83.95;37.85;;;;;;;;;;5090656;28;20039;-86
2021/12/08 07:57:50;;;;;;;86.20;38.10;;;;;;;;;;5076994;28;20538;-86
2021/12/08 08:00:26;;;;;;;91.15;38.30;;;;;;;;;;5091482;28;20020;-85
2021/12/08 08:02:53;;;;;;;79.97;35.90;;;;;;;;;;5097008;28;20058;-86
2021/12/08 08:05:27;;;;;;;94.78;40.67;;;;;;;;;;5094568;28;20035;-85
2021/12/08 08:07:54;;;;;;;89.93;36.15;;;;;;;;;;5098689;28;20447;-86
2021/12/08 08:10:29;;;;;;;82.95;36.88;;;;;;;;;;5087657;28;20020;-86
2021/12/08 08:13:02;;;;;;;83.20;37.22;;;;;;;;;;5097292;28;20026;-85
2021/12/08 08:15:30;;;;;;;85.82;38.42;;;;;;;;;;5092703;28;20032;-86
2021/12/08 08:17:57;;;;;;;93.07;38.00;;;;;;;;;;5082504;28;20019;-86
2021/12/08 08:20:26;;;;;;;90.80;38.47;;;;;;;;;;5087967;28;20542;-85
2021/12/08 08:23:06;;;;;;;82.25;38.28;;;;;;;;;;5089574;28;20039;-87
2021/12/08 08:25:35;;;;;;;89.25;39.22;;;;;;;;;;5090697;28;20065;-84
2021/12/08 08:28:12;;;;;;;88.45;34.50;;;;;;;;;;5087948;28;20035;-84
2021/12/08 08:30:41;;;;;;;75.57;34.30;;;;;;;;;;5096006;28;20550;-83
2021/12/08 08:33:08;;;;;;;91.20;37.35;;;;;;;;;;5087747;28;20027;-84
2021/12/08 08:35:39;;;;;;;88.05;36.63;;;;;;;;;;5086677;28;20028;-84
2021/12/08 08:38:08;;;;;;;79.78;34.20;;;;;;;;;;5094141;28;20114;-84
2021/12/08 08:40:38;;;;;;;85.03;34.70;;;;;;;;;;5096209;28;20034;-83
2021/12/08 08:43:06;;;;;;;86.95;35.60;;;;;;;;;;5096149;28;20050;-83
2021/12/08 08:45:36;;;;;;;81.93;37.13;;;;;;;;;;5095740;28;20027;-83
2021/12/08 08:48:07;;;;;;;91.00;38.08;;;;;;;;;;5089929;28;20020;-84
2021/12/08 08:50:37;;;;;;;83.90;32.80;;;;;;;;;;5084889;28;20459;-84
2021/12/08 08:53:06;;;;;;;86.35;35.00;;;;;;;;;;5083079;28;20023;-83
2021/12/08 08:55:35;;;;;;;91.70;36.45;;;;;;;;;;5090483;28;20041;-84
2021/12/08 08:58:09;;;;;;;88.80;38.97;;;;;;;;;;5092532;28;20024;-84
2021/12/08 09:00:45;;;;;;;113.82;45.28;;;;;;;;;;5088950;28;20035;-84
2021/12/08 09:03:14;;;;;;;94.45;43.72;;;;;;;;;;5095432;28;20039;-83
2021/12/08 09:05:44;;;;;;;92.75;41.55;;;;;;;;;;5092679;28;20035;-84
2021/12/08 09:08:11;;;;;;;98.30;42.40;;;;;;;;;;5091187;28;20051;-83
2021/12/08 09:10:40;;;;;;;97.43;38.83;;;;;;;;;;5089519;28;20467;-84
2021/12/08 09:13:21;;;;;;;117.93;44.25;;;;;;;;;;5086983;28;20032;-83
2021/12/08 09:15:53;;;;;;;117.20;44.15;;;;;;;;;;5091252;28;20029;-84
2021/12/08 09:18:24;;;;;;;106.05;42.03;;;;;;;;;;5091788;28;20099;-84
2021/12/08 09:21:08;;;;;;;93.03;41.03;;;;;;;;;;5093235;28;20024;-84
2021/12/08 09:23:57;;;;;;;114.75;47.78;;;;;;;;;;5091488;28;20028;-84
2021/12/08 09:26:25;;;;;;;115.72;46.35;;;;;;;;;;5086750;28;20032;-83
2021/12/08 09:29:04;;;;;;;102.18;42.55;;;;;;;;;;5091972;28;20028;-84
2021/12/08 09:31:33;;;;;;;95.47;42.85;;;;;;;;;;5080531;28;20024;-85
2021/12/08 09:34:08;;;;;;;89.35;42.67;;;;;;;;;;5078935;28;20024;-84
2021/12/08 09:36:39;;;;;;;98.32;42.95;;;;;;;;;;5086436;28;20028;-84
2021/12/08 09:39:13;;;;;;;102.70;45.30;;;;;;;;;;5081503;28;20041;-84
2021/12/08 09:41:50;;;;;;;111.00;45.65;;;;;;;;;;5089535;28;20478;-84
2021/12/08 09:44:19;;;;;;;94.63;43.22;;;;;;;;;;5089462;28;20028;-83
2021/12/08 09:46:49;;;;;;;101.53;43.33;;;;;;;;;;5080347;28;20047;-84
2021/12/08 09:49:17;;;;;;;100.80;46.40;;;;;;;;;;5085947;28;20060;-84
2021/12/08 09:51:46;;;;;;;102.05;46.50;;;;;;;;;;5086605;28;20069;-84
2021/12/08 09:54:12;;;;;;;120.43;54.22;;;;;;;;;;5089419;28;20024;-87
2021/12/08 09:56:40;;;;;;;146.50;66.97;;;;;;;;;;5090533;28;20103;-87
2021/12/08 09:59:09;;;;;;;132.82;62.33;;;;;;;;;;5084058;28;20020;-87
2021/12/08 10:01:41;;;;;;;153.95;70.88;;;;;;;;;;5091028;28;20036;-86
2021/12/08 10:04:08;;;;;;;144.23;65.97;;;;;;;;;;5090011;28;20032;-83
2021/12/08 10:06:37;;;;;;;128.20;60.53;;;;;;;;;;5083553;28;20115;-84
2021/12/08 10:09:06;;;;;;;157.82;68.05;;;;;;;;;;5090642;28;20052;-82
2021/12/08 10:11:33;;;;;;;161.38;69.47;;;;;;;;;;5086621;28;20060;-83
2021/12/08 10:14:06;;;;;;;160.60;66.88;;;;;;;;;;5085697;28;20020;-82
2021/12/08 10:16:33;;;;;;;163.32;68.63;;;;;;;;;;5091534;28;20028;-83
2021/12/08 10:18:59;;;;;;;151.45;63.45;;;;;;;;;;5089901;28;20551;-82
2021/12/08 10:21:36;;;;;;;161.77;65.70;;;;;;;;;;5092505;28;20066;-85
2021/12/08 10:24:12;;;;;;;145.77;58.65;;;;;;;;;;5088776;28;20031;-85
2021/12/08 10:26:38;;;;;;;183.10;60.13;;;;;;;;;;5088276;28;20474;-84
2021/12/08 10:29:06;;;;;;;191.95;73.00;;;;;;;;;;5091664;28;20047;-84
2021/12/08 10:31:34;;;;;;;197.57;74.32;;;;;;;;;;5084563;28;20020;-84
2021/12/08 10:36:49;;;;;;;189.75;74.82;;;;;;;;;;5087101;28;20024;-84
2021/12/08 10:39:22;;;;;;;192.98;71.18;;;;;;;;;;5077421;28;20025;-83
2021/12/08 10:41:53;;;;;;;188.60;69.68;;;;;;;;;;5072792;28;20028;-84
2021/12/08 10:44:48;;;;;;;169.85;66.07;;;;;;;;;;5091626;28;20027;-84
2021/12/08 10:47:25;;;;;;;160.25;61.42;;;;;;;;;;5094968;28;20024;-84
2021/12/08 10:57:59;;;;;;;161.80;65.25;;;;;;;;;;5095542;28;20028;-84
2021/12/08 11:00:31;;;;;;;174.10;68.72;;;;;;;;;;5091886;28;20818;-84
2021/12/08 11:03:07;;;;;;;194.00;73.00;;;;;;;;;;4975190;28;10000868;-84
2021/12/08 11:05:45;;;;;;;177.82;71.95;;;;;;;;;;4741133;28;10000217;-85
2021/12/08 11:08:14;;;;;;;188.23;70.50;;;;;;;;;;5093740;28;20036;-85
2021/12/08 11:10:41;;;;;;;184.68;71.43;;;;;;;;;;5094031;28;20665;-84
2021/12/08 11:13:09;;;;;;;174.95;70.20;;;;;;;;;;5093980;28;20107;-84
2021/12/08 11:15:37;;;;;;;178.32;70.68;;;;;;;;;;5090897;28;20097;-85
2021/12/08 11:18:09;;;;;;;190.35;73.88;;;;;;;;;;5094543;28;20119;-85
2021/12/08 11:20:41;;;;;;;178.25;71.57;;;;;;;;;;5094004;28;20115;-86
2021/12/08 11:23:10;;;;;;;165.25;63.17;;;;;;;;;;5093475;28;20043;-85
2021/12/08 11:25:39;;;;;;;172.40;69.43;;;;;;;;;;5093434;28;20024;-84
2021/12/08 11:28:33;;;;;;;181.48;71.35;;;;;;;;;;5092084;28;20907;-84
2021/12/08 11:31:05;;;;;;;200.25;75.95;;;;;;;;;;5093843;28;20033;-85
2021/12/08 11:33:32;;;;;;;197.57;75.10;;;;;;;;;;5089790;28;20039;-85
2021/12/08 11:36:16;;;;;;;213.10;76.80;;;;;;;;;;5086048;28;20032;-84
2021/12/08 11:38:43;;;;;;;193.20;71.05;;;;;;;;;;5084491;28;20023;-85
2021/12/08 11:41:21;;;;;;;199.73;74.07;;;;;;;;;;5079437;28;20047;-87
2021/12/08 11:43:51;;;;;;;199.65;72.93;;;;;;;;;;5081155;28;20332;-85
2021/12/08 11:46:18;;;;;;;194.10;71.97;;;;;;;;;;5086734;28;20434;-84
2021/12/08 11:48:57;;;;;;;225.75;76.70;;;;;;;;;;5085317;28;20056;-85
2021/12/08 11:51:24;;;;;;;224.43;79.43;;;;;;;;;;5082181;28;20081;-85
2021/12/08 11:53:51;;;;;;;242.10;85.07;;;;;;;;;;5087667;28;20139;-85
2021/12/08 11:56:31;;;;;;;234.85;81.13;;;;;;;;;;5085302;28;20021;-85
2021/12/08 11:58:58;;;;;;;251.02;86.88;;;;;;;;;;5089992;28;20024;-86
2021/12/08 12:01:24;;;;;;;251.57;90.32;;;;;;;;;;5083987;28;20033;-84
2021/12/08 12:03:51;;;;;;;245.63;94.47;;;;;;;;;;5084309;28;20135;-87
2021/12/08 12:06:17;;;;;;;283.48;98.70;;;;;;;;;;5081331;28;20460;-85
2021/12/08 12:08:47;;;;;;;283.73;99.93;;;;;;;;;;5081165;28;20053;-86
2021/12/08 12:11:13;;;;;;;258.73;92.10;;;;;;;;;;5075425;28;20029;-86
2021/12/08 12:13:40;;;;;;;265.25;87.38;;;;;;;;;;5085972;28;20404;-87
2021/12/08 12:16:06;;;;;;;248.63;83.80;;;;;;;;;;5081748;28;20466;-87
2021/12/08 12:18:34;;;;;;;243.50;82.32;;;;;;;;;;5087999;28;20110;-84
2021/12/08 12:21:25;;;;;;;255.13;84.03;;;;;;;;;;5092246;28;20031;-86
2021/12/08 12:24:10;;;;;;;264.83;90.35;;;;;;;;;;5078803;28;20115;-86
2021/12/08 12:26:37;;;;;;;252.82;87.25;;;;;;;;;;5085361;28;20031;-87
2021/12/08 12:29:23;;;;;;;230.15;81.07;;;;;;;;;;5080057;28;20024;-89
2021/12/08 12:31:55;;;;;;;245.98;83.97;;;;;;;;;;5081649;28;20493;-87
2021/12/08 12:34:28;;;;;;;254.05;84.25;;;;;;;;;;5082190;28;20472;-87
2021/12/08 12:36:54;;;;;;;239.13;82.03;;;;;;;;;;5083352;28;20501;-87
2021/12/08 12:39:26;;;;;;;253.55;79.25;;;;;;;;;;5085832;28;20036;-87
2021/12/08 12:42:10;;;;;;;249.80;82.22;;;;;;;;;;5083545;28;20036;-87
2021/12/08 12:44:39;;;;;;;236.82;81.85;;;;;;;;;;5081975;28;20056;-87
2021/12/08 12:47:27;;;;;;;221.70;78.50;;;;;;;;;;5090694;28;20035;-87
2021/12/08 12:50:12;;;;;;;223.13;73.93;;;;;;;;;;5087559;28;20058;-87
2021/12/08 12:52:40;;;;;;;222.50;76.20;;;;;;;;;;5083204;28;20037;-87
2021/12/08 12:55:09;;;;;;;214.00;75.07;;;;;;;;;;5085829;28;20046;-86
2021/12/08 12:57:56;;;;;;;204.68;72.15;;;;;;;;;;5085621;28;20047;-85
2021/12/08 13:00:31;;;;;;;254.50;80.13;;;;;;;;;;5078510;28;20489;-86
2021/12/08 13:02:59;;;;;;;195.63;69.38;;;;;;;;;;5085232;28;20024;-87
2021/12/08 13:05:44;;;;;;;231.05;76.63;;;;;;;;;;5084780;28;20029;-86
2021/12/08 13:08:11;;;;;;;212.85;73.43;;;;;;;;;;5087370;28;20126;-84
2021/12/08 13:10:40;;;;;;;204.75;74.90;;;;;;;;;;5080343;28;20051;-84
2021/12/08 13:13:14;;;;;;;242.07;79.95;;;;;;;;;;5085707;28;20077;-84
2021/12/08 13:15:50;;;;;;;240.80;77.70;;;;;;;;;;5079017;28;20055;-84
2021/12/08 13:18:17;;;;;;;258.92;81.82;;;;;;;;;;5083787;28;20170;-85
2021/12/08 13:23:32;;;;;;;225.13;76.05;;;;;;;;;;5088913;28;20483;-85
2021/12/08 13:26:04;;;;;;;263.58;82.22;;;;;;;;;;5087108;28;20036;-86
2021/12/08 13:28:35;;;;;;;221.77;77.05;;;;;;;;;;5084664;28;20020;-85
2021/12/08 13:31:14;;;;;;;296.48;89.00;;;;;;;;;;5087500;28;20047;-84
2021/12/08 13:33:45;;;;;;;257.95;83.90;;;;;;;;;;5089008;28;20023;-85
2021/12/08 13:36:20;;;;;;;239.13;82.95;;;;;;;;;;5084692;28;20023;-84
2021/12/08 13:38:59;;;;;;;204.48;72.65;;;;;;;;;;5085733;28;20030;-85
2021/12/08 13:41:30;;;;;;;194.10;68.55;;;;;;;;;;5080711;28;20089;-85
2021/12/08 13:43:57;;;;;;;212.32;74.05;;;;;;;;;;5082412;28;20101;-85
2021/12/08 13:46:39;;;;;;;231.23;71.13;;;;;;;;;;5084996;28;20035;-84
2021/12/08 13:49:17;;;;;;;190.30;69.00;;;;;;;;;;5080675;28;20020;-85
2021/12/08 13:52:01;;;;;;;180.70;64.93;;;;;;;;;;5074940;28;20054;-84
2021/12/08 13:54:31;;;;;;;194.82;70.60;;;;;;;;;;5083307;28;20499;-85
2021/12/08 13:56:58;;;;;;;227.80;80.78;;;;;;;;;;5074263;28;20056;-86
2021/12/08 13:59:43;;;;;;;205.13;75.70;;;;;;;;;;5082520;28;20516;-86
2021/12/08 14:02:28;;;;;;;183.63;69.03;;;;;;;;;;5077695;28;20098;-85
2021/12/08 14:05:00;;;;;;;204.25;74.80;;;;;;;;;;5088281;28;20089;-87
2021/12/08 14:07:27;;;;;;;223.68;75.55;;;;;;;;;;5084666;28;20744;-86
2021/12/08 14:10:00;;;;;;;169.38;63.72;;;;;;;;;;5082059;28;20487;-89
2021/12/08 14:15:42;;;;;;;178.77;68.65;;;;;;;;;;5090741;28;20134;-89
2021/12/08 14:18:12;;;;;;;162.73;66.22;;;;;;;;;;5083188;28;20033;-89
2021/12/08 14:20:40;;;;;;;181.50;68.60;;;;;;;;;;5086656;28;20028;-88
2021/12/08 14:23:06;;;;;;;160.25;61.47;;;;;;;;;;5088996;28;20347;-87
2021/12/08 14:25:40;;;;;;;152.95;55.95;;;;;;;;;;5087576;28;20036;-87
2021/12/08 14:28:24;;;;;;;136.52;53.13;;;;;;;;;;5087263;28;20036;-87
2021/12/08 14:30:54;;;;;;;128.20;49.50;;;;;;;;;;5094025;28;20475;-88
2021/12/08 14:33:24;;;;;;;145.85;55.10;;;;;;;;;;5090882;28;20035;-88
2021/12/08 14:36:02;;;;;;;119.82;49.05;;;;;;;;;;5079879;28;20047;-88
2021/12/08 14:38:29;;;;;;;215.07;87.88;;;;;;;;;;5080930;28;20127;-88
2021/12/08 14:40:57;;;;;;;242.10;101.40;;;;;;;;;;5083042;28;20028;-88
2021/12/08 14:43:35;;;;;;;271.48;107.53;;;;;;;;;;5080359;28;20367;-88
2021/12/08 14:46:09;;;;;;;204.52;79.57;;;;;;;;;;5093116;28;20067;-88
2021/12/08 14:48:35;;;;;;;182.52;70.78;;;;;;;;;;5092183;28;20031;-88
2021/12/08 14:51:01;;;;;;;180.13;73.60;;;;;;;;;;5093324;28;20421;-88
2021/12/08 14:53:34;;;;;;;192.50;76.07;;;;;;;;;;5087439;28;20055;-88
2021/12/08 14:56:08;;;;;;;186.75;70.68;;;;;;;;;;5093206;28;20027;-87
2021/12/08 14:58:36;;;;;;;172.57;63.95;;;;;;;;;;5094200;28;20066;-88
2021/12/08 15:01:02;;;;;;;159.88;63.60;;;;;;;;;;5092443;28;20089;-89
2021/12/08 15:03:29;;;;;;;133.85;51.25;;;;;;;;;;5090347;28;20028;-88
2021/12/08 15:05:55;;;;;;;141.18;52.08;;;;;;;;;;5090520;28;20494;-88
2021/12/08 15:08:24;;;;;;;119.93;46.50;;;;;;;;;;5087112;28;20036;-89
2021/12/08 15:10:52;;;;;;;111.65;44.72;;;;;;;;;;5059966;28;20073;-91
2021/12/08 15:13:25;;;;;;;133.38;50.88;;;;;;;;;;5054560;28;20391;-90
2021/12/08 15:16:11;;;;;;;136.23;54.10;;;;;;;;;;5038098;28;20022;-89
2021/12/08 15:18:37;;;;;;;169.70;62.72;;;;;;;;;;5051289;28;20040;-90
2021/12/08 15:24:09;;;;;;;126.80;48.47;;;;;;;;;;5051269;28;20060;-90
2021/12/08 15:26:44;;;;;;;115.40;44.80;;;;;;;;;;5054535;28;20029;-93
2021/12/08 15:29:21;;;;;;;107.85;42.22;;;;;;;;;;5043471;28;20029;-90
2021/12/08 15:31:57;;;;;;;110.95;40.28;;;;;;;;;;5050465;28;20068;-91
2021/12/08 15:34:33;;;;;;;97.95;37.58;;;;;;;;;;5063917;28;20029;-91
2021/12/08 15:37:13;;;;;;;101.22;39.28;;;;;;;;;;5051261;28;20463;-91
2021/12/08 15:39:56;;;;;;;115.40;40.70;;;;;;;;;;5054652;28;20380;-90
2021/12/08 15:42:24;;;;;;;114.95;41.58;;;;;;;;;;5042756;28;20028;-90
2021/12/08 15:45:00;;;;;;;117.25;43.40;;;;;;;;;;5052269;28;20029;-89
2021/12/08 15:47:26;;;;;;;117.55;44.45;;;;;;;;;;5053923;28;20021;-88
2021/12/08 15:49:57;;;;;;;114.32;43.15;;;;;;;;;;5053495;28;20078;-91
2021/12/08 15:52:31;;;;;;;133.90;46.42;;;;;;;;;;5053626;28;20604;-86
2021/12/08 15:55:04;;;;;;;122.18;46.03;;;;;;;;;;5053610;28;20025;-84
2021/12/08 15:57:30;;;;;;;127.10;48.95;;;;;;;;;;5036757;28;20408;-83
2021/12/08 16:00:02;;;;;;;136.25;49.50;;;;;;;;;;5035349;28;20022;-85
2021/12/08 16:02:29;;;;;;;138.55;53.20;;;;;;;;;;5053746;28;20029;-82
2021/12/08 16:04:56;;;;;;;148.95;52.85;;;;;;;;;;5040884;28;20052;-83
2021/12/08 16:07:24;;;;;;;158.18;58.47;;;;;;;;;;5052433;28;20054;-84
2021/12/08 16:09:50;;;;;;;147.13;54.83;;;;;;;;;;5067790;28;20075;-83
2021/12/08 16:12:23;;;;;;;152.18;55.15;;;;;;;;;;5056093;28;20032;-84
2021/12/08 16:14:52;;;;;;;166.32;58.20;;;;;;;;;;5050372;28;20116;-85
2021/12/08 16:17:37;;;;;;;150.80;55.70;;;;;;;;;;5044876;28;20087;-85
2021/12/08 16:20:06;;;;;;;151.18;56.53;;;;;;;;;;5053283;28;20021;-85
2021/12/08 16:22:34;;;;;;;147.20;56.47;;;;;;;;;;5056487;28;20028;-85
2021/12/08 16:25:01;;;;;;;165.63;62.63;;;;;;;;;;5056078;28;20056;-85
2021/12/08 16:27:38;;;;;;;175.48;60.75;;;;;;;;;;5055565;28;20036;-85
2021/12/08 16:30:06;;;;;;;166.40;61.15;;;;;;;;;;5055341;28;20433;-85
2021/12/08 16:32:34;;;;;;;150.50;55.90;;;;;;;;;;5048046;28;20029;-85
2021/12/08 16:35:03;;;;;;;140.38;58.63;;;;;;;;;;5052087;28;20510;-86
2021/12/08 16:37:32;;;;;;;151.93;58.10;;;;;;;;;;5056299;28;20028;-85
2021/12/08 16:40:23;;;;;;;155.43;60.10;;;;;;;;;;5056348;28;20069;-84
2021/12/08 16:43:06;;;;;;;143.20;53.40;;;;;;;;;;5060814;28;20159;-85
2021/12/08 16:45:35;;;;;;;132.80;50.80;;;;;;;;;;5020196;28;20120;-85
2021/12/08 16:48:05;;;;;;;123.45;47.70;;;;;;;;;;5032494;28;20513;-85
2021/12/08 16:50:33;;;;;;;128.48;49.13;;;;;;;;;;5016073;28;20041;-85
2021/12/08 16:53:00;;;;;;;118.68;45.78;;;;;;;;;;5016145;28;20029;-85
2021/12/08 16:55:40;;;;;;;132.80;50.17;;;;;;;;;;5016245;28;20026;-85
2021/12/08 16:58:07;;;;;;;149.82;57.50;;;;;;;;;;5015789;28;20030;-85
2021/12/08 17:00:38;;;;;;;125.05;52.30;;;;;;;;;;5015997;28;20029;-85
2021/12/08 17:03:08;;;;;;;155.50;62.83;;;;;;;;;;5012946;28;20057;-85
2021/12/08 17:05:43;;;;;;;189.40;69.68;;;;;;;;;;5015795;28;20097;-85
2021/12/08 17:08:10;;;;;;;182.13;67.95;;;;;;;;;;5015765;28;20086;-85
2021/12/08 17:10:38;;;;;;;170.80;63.30;;;;;;;;;;4999925;28;20059;-85
2021/12/08 17:13:10;;;;;;;195.98;72.20;;;;;;;;;;5012353;28;20033;-85
2021/12/08 17:15:36;;;;;;;196.63;69.15;;;;;;;;;;5008297;28;20116;-85
2021/12/08 17:18:04;;;;;;;182.63;68.28;;;;;;;;;;5006404;28;20027;-85
2021/12/08 17:20:40;;;;;;;207.77;74.13;;;;;;;;;;5017553;28;20032;-85
2021/12/08 17:23:10;;;;;;;214.18;78.25;;;;;;;;;;5012499;28;20033;-84
2021/12/08 17:25:38;;;;;;;215.00;83.10;;;;;;;;;;5006176;28;20380;-85
2021/12/08 17:28:05;;;;;;;205.75;80.38;;;;;;;;;;4999430;28;20033;-86
2021/12/08 17:30:32;;;;;;;246.27;86.88;;;;;;;;;;5015189;28;20065;-85
2021/12/08 17:32:59;;;;;;;216.32;81.40;;;;;;;;;;5006315;28;20428;-85
2021/12/08 17:35:25;;;;;;;229.75;84.50;;;;;;;;;;5010962;28;20027;-85
2021/12/08 17:37:52;;;;;;;243.40;85.63;;;;;;;;;;5031453;28;20021;-88
2021/12/08 17:40:19;;;;;;;226.82;85.78;;;;;;;;;;5015124;28;20083;-87
2021/12/08 17:42:50;;;;;;;209.90;78.40;;;;;;;;;;4997853;28;20042;-86
2021/12/08 17:45:18;;;;;;;215.93;78.32;;;;;;;;;;5031974;28;20570;-87
2021/12/08 17:47:44;;;;;;;240.57;83.55;;;;;;;;;;5032065;28;20033;-87
2021/12/08 17:50:13;;;;;;;221.23;79.57;;;;;;;;;;5032046;28;20037;-86
2021/12/08 17:52:42;;;;;;;246.55;83.40;;;;;;;;;;5023559;28;20026;-85
2021/12/08 17:55:18;;;;;;;262.10;86.28;;;;;;;;;;5031706;28;20032;-86
2021/12/08 17:57:45;;;;;;;236.68;81.60;;;;;;;;;;5032060;28;20022;-85
2021/12/08 18:00:17;;;;;;;216.13;76.32;;;;;;;;;;5031173;28;20029;-86
2021/12/08 18:02:43;;;;;;;212.60;76.68;;;;;;;;;;5031953;28;20026;-87
2021/12/08 18:05:13;;;;;;;274.65;87.28;;;;;;;;;;5031528;28;20028;-86
2021/12/08 18:07:39;;;;;;;233.02;80.28;;;;;;;;;;5031797;28;20095;-86
2021/12/08 18:10:24;;;;;;;257.70;84.13;;;;;;;;;;5031564;28;20029;-86
2021/12/08 18:12:50;;;;;;;268.10;83.90;;;;;;;;;;5012357;28;20089;-86
2021/12/08 18:15:20;;;;;;;278.02;88.97;;;;;;;;;;5025188;28;20751;-86
2021/12/08 18:17:46;;;;;;;245.50;81.07;;;;;;;;;;5032203;28;20026;-86
2021/12/08 18:20:17;;;;;;;282.30;87.50;;;;;;;;;;5032042;28;20495;-86
2021/12/08 18:22:49;;;;;;;267.45;80.97;;;;;;;;;;5028717;28;20018;-87
2021/12/08 18:25:16;;;;;;;233.45;82.50;;;;;;;;;;5028067;28;20026;-87
2021/12/08 18:27:43;;;;;;;217.70;74.05;;;;;;;;;;5032022;28;20017;-87
2021/12/08 18:30:10;;;;;;;258.25;80.95;;;;;;;;;;5031365;28;20029;-86
2021/12/08 18:32:37;;;;;;;229.43;77.38;;;;;;;;;;5031621;28;20029;-86
2021/12/08 18:35:25;;;;;;;256.27;81.72;;;;;;;;;;5031888;28;20388;-86
2021/12/08 18:37:59;;;;;;;263.30;82.22;;;;;;;;;;5032586;28;20022;-86
2021/12/08 18:40:28;;;;;;;233.15;76.45;;;;;;;;;;5031420;28;20035;-86
2021/12/08 18:42:59;;;;;;;266.45;83.10;;;;;;;;;;5011821;28;20067;-85
2021/12/08 18:45:25;;;;;;;281.80;86.85;;;;;;;;;;5025871;28;20480;-86
2021/12/08 18:47:52;;;;;;;252.38;82.78;;;;;;;;;;5031692;28;20025;-86
2021/12/08 18:50:26;;;;;;;282.23;91.28;;;;;;;;;;5031977;28;20080;-87
2021/12/08 18:52:52;;;;;;;282.52;90.28;;;;;;;;;;5031755;28;20097;-86
2021/12/08 18:55:19;;;;;;;359.40;104.15;;;;;;;;;;5031046;28;20453;-85
2021/12/08 18:58:24;;;;;;;310.20;99.30;;;;;;;;;;5031668;28;20032;-86
2021/12/08 19:01:07;;;;;;;324.95;99.80;;;;;;;;;;4968801;28;20109;-86
2021/12/08 19:03:34;;;;;;;292.15;97.30;;;;;;;;;;5018515;28;20504;-86
2021/12/08 19:09:07;;;;;;;344.20;106.28;;;;;;;;;;5016138;28;20503;-86
2021/12/08 19:11:45;;;;;;;292.05;96.53;;;;;;;;;;5033478;28;20025;-86
2021/12/08 19:14:13;;;;;;;275.80;86.57;;;;;;;;;;5034539;28;20468;-86
2021/12/08 19:16:43;;;;;;;256.38;77.70;;;;;;;;;;5030883;28;20018;-86
2021/12/08 19:19:09;;;;;;;260.55;82.50;;;;;;;;;;5030388;28;20384;-86
2021/12/08 19:21:38;;;;;;;269.27;79.78;;;;;;;;;;5034876;28;20028;-86
2021/12/08 19:24:05;;;;;;;248.98;74.95;;;;;;;;;;5017082;28;20037;-86
2021/12/08 19:26:32;;;;;;;233.18;71.60;;;;;;;;;;5034692;28;20039;-86
2021/12/08 19:28:59;;;;;;;229.57;67.30;;;;;;;;;;5034723;28;20048;-86
2021/12/08 19:31:32;;;;;;;214.18;64.07;;;;;;;;;;5034843;28;20171;-87
2021/12/08 19:33:59;;;;;;;229.73;68.18;;;;;;;;;;5028956;28;20044;-87
2021/12/08 19:36:32;;;;;;;212.50;64.50;;;;;;;;;;5033951;28;20048;-85
2021/12/08 19:38:58;;;;;;;213.32;65.75;;;;;;;;;;5026121;28;20029;-85
2021/12/08 19:41:26;;;;;;;208.60;65.97;;;;;;;;;;5034584;28;20025;-86
2021/12/08 19:43:52;;;;;;;201.82;58.45;;;;;;;;;;5035183;28;20065;-86
2021/12/08 19:46:19;;;;;;;173.05;55.92;;;;;;;;;;5034131;28;20434;-86
2021/12/08 19:48:47;;;;;;;153.68;52.45;;;;;;;;;;5017514;28;20049;-86
2021/12/08 19:51:28;;;;;;;187.52;58.35;;;;;;;;;;5017721;28;20028;-87
2021/12/08 19:53:55;;;;;;;176.45;57.38;;;;;;;;;;5017404;28;20473;-87
2021/12/08 19:56:35;;;;;;;242.73;68.60;;;;;;;;;;5012569;28;20054;-87
2021/12/08 19:59:02;;;;;;;174.68;58.22;;;;;;;;;;5033041;28;20084;-86
2021/12/08 20:01:32;;;;;;;243.07;67.70;;;;;;;;;;5016971;28;20472;-86
2021/12/08 20:03:58;;;;;;;186.98;60.83;;;;;;;;;;5008883;28;20033;-87
2021/12/08 20:06:48;;;;;;;170.80;57.47;;;;;;;;;;5011918;28;20033;-86
2021/12/08 20:12:08;;;;;;;180.45;61.85;;;;;;;;;;5032391;28;20511;-86
2021/12/08 20:14:40;;;;;;;227.23;63.38;;;;;;;;;;5013960;28;20030;-86
2021/12/08 20:17:15;;;;;;;243.95;68.63;;;;;;;;;;5014424;28;20025;-86
2021/12/08 20:19:44;;;;;;;203.23;61.88;;;;;;;;;;5017497;28;20435;-86
2021/12/08 20:22:11;;;;;;;202.85;64.10;;;;;;;;;;5017103;28;20730;-87
2021/12/08 20:24:47;;;;;;;279.00;76.15;;;;;;;;;;5016974;28;20040;-87
2021/12/08 20:27:14;;;;;;;226.75;67.20;;;;;;;;;;5010116;28;20036;-87
2021/12/08 20:29:40;;;;;;;281.67;77.05;;;;;;;;;;5033669;28;20025;-84
2021/12/08 20:32:19;;;;;;;221.07;65.35;;;;;;;;;;5034727;28;20032;-84
2021/12/08 20:34:46;;;;;;;233.18;67.88;;;;;;;;;;5017013;28;20033;-84
2021/12/08 20:37:24;;;;;;;194.90;62.60;;;;;;;;;;5017060;28;20022;-85
2021/12/08 20:39:50;;;;;;;212.85;66.93;;;;;;;;;;5013160;28;20049;-84
2021/12/08 20:42:17;;;;;;;245.02;69.43;;;;;;;;;;4997439;28;20022;-86
2021/12/08 20:44:43;;;;;;;224.32;67.30;;;;;;;;;;5010210;28;20046;-85
2021/12/08 20:47:18;;;;;;;216.45;64.82;;;;;;;;;;5032811;28;20029;-84
2021/12/08 20:49:44;;;;;;;191.27;60.95;;;;;;;;;;5032968;28;20420;-84
2021/12/08 20:52:11;;;;;;;156.38;53.17;;;;;;;;;;5032764;28;20476;-84
2021/12/08 20:54:43;;;;;;;124.45;43.22;;;;;;;;;;5034234;28;20595;-84
2021/12/08 20:57:11;;;;;;;139.88;46.08;;;;;;;;;;5031424;28;20532;-85
2021/12/08 20:59:41;;;;;;;113.93;38.97;;;;;;;;;;5032444;28;20430;-85